Atlantic - Newfoundland: Past 24 Hour Conditions

 

Pool's Island

02:30 PM NST 26 November 2014
This table is a summary of hourly weather conditions for the past 24 hours.
Date / Time
(NST)
Wind(knots) Conditions Visibility(km) Pressure(kPa) Air tempC) Relative humidity(%) Dew pointC)
26 November 2014
14:30 WNW 15 gust 23 N/A N/A 101.0 7 52 -2
13:30 WNW 24 gust 32 N/A N/A 100.9 7 50 -3
12:30 WNW 24 gust 31 N/A N/A 100.8 7 54 -2
11:30 WNW 25 gust 34 N/A N/A 100.7 7 57 -1
10:30 W 19 gust 33 N/A N/A 100.7 7 60 -1
9:30 W 27 gust 37 N/A N/A 100.5 6 63 0
8:30 W 19 gust 27 N/A N/A 100.5 6 67 0
7:30 W 17 gust 24 N/A N/A 100.4 6 67 0
6:30 W 23 gust 29 N/A N/A 100.2 6 66 0
5:30 W 20 gust 26 N/A N/A 100.2 6 65 0
4:30 W 21 gust 29 N/A N/A 100.1 7 64 1
3:30 W 20 gust 31 N/A N/A 100.1 8 62 1
2:30 WSW 15 gust 26 N/A N/A 100.0 9 62 2
1:30 WSW 11 N/A N/A 100.0 9 74 5
0:30 WSW 21 gust 26 N/A N/A 99.9 11 73 6
25 November 2014
23:30 W 16 gust 27 N/A N/A 100.0 11 75 7
22:30 W 21 gust 28 N/A N/A 99.9 12 72 7
21:30 WSW 18 gust 24 N/A N/A 99.9 12 73 8
20:30 WSW 14 gust 19 N/A N/A 99.9 11 82 8
19:30 WSW 17 gust 24 N/A N/A 99.9 11 84 8
18:30 SW 24 N/A N/A 99.8 11 86 9
17:30 SW 16 gust 21 N/A N/A 99.8 12 84 9
16:30 SW 19 gust 24 N/A N/A 99.8 12 82 9
15:30 WSW 16 gust 24 N/A N/A 99.8 15 72 10
14:30 WSW 22 gust 32 N/A N/A 99.7 15 77 11
 
Map of Atlantic - Newfoundland marine weather areas Southwestern Grand Banks - 44138 Banquereau - 44139 Tail of the Bank - 44140 Nickerson Bank - 44251 Northeast Burgeo Bank - 44255 Blanc-Sablon Airport Cap Whittle Chevery Natashquan Airport Heath Point Miscou Island Grand Étang Ingonish Beach North Mountain St.Paul Island J.A. Douglas McCurdy Sydney Airport Charlottetown Airport East Point North Cape Argentia Bonavista Burgeo Cape Race Corner Brook Daniel's Harbour Englee Ferolle Point La Scie Port aux Basques Rocky Harbour Sagona Island St. Anthony Airport St. John's Int'l Airport St. Lawrence Stephenville Airport Twillingate Winterland Wreckhouse Cartwright Airport Mary's Harbour Grates Cove Pool's Island Marticot Island Long Pond Îles de la Madeleine Airport
Legend: buoyBuoy land stationLand Station